sensor_id;sensor_type;location;lat;lon;timestamp;pressure;altitude;pressure_sealevel;temperature;humidity
11339;BME280;5724;42.684;23.252;2023-03-26T00:00:59;93894.88;;;8.37;84.98
11339;BME280;5724;42.684;23.252;2023-03-26T00:03:25;93902.78;;;8.42;84.66
11339;BME280;5724;42.684;23.252;2023-03-26T00:06:06;93897.16;;;8.35;85.47
11339;BME280;5724;42.684;23.252;2023-03-26T00:08:34;93894.34;;;8.31;85.58
11339;BME280;5724;42.684;23.252;2023-03-26T00:11:00;93899.53;;;8.37;85.43
11339;BME280;5724;42.684;23.252;2023-03-26T00:13:25;93870.72;;;8.20;85.67
11339;BME280;5724;42.684;23.252;2023-03-26T00:15:51;93887.94;;;8.24;85.99
11339;BME280;5724;42.684;23.252;2023-03-26T00:18:17;93862.25;;;8.21;85.43
11339;BME280;5724;42.684;23.252;2023-03-26T00:20:45;93878.22;;;8.23;85.79
11339;BME280;5724;42.684;23.252;2023-03-26T00:23:11;93867.81;;;8.28;85.60
11339;BME280;5724;42.684;23.252;2023-03-26T00:25:37;93872.75;;;8.23;86.21
11339;BME280;5724;42.684;23.252;2023-03-26T00:28:06;93864.97;;;8.21;85.53
11339;BME280;5724;42.684;23.252;2023-03-26T00:30:32;93864.59;;;8.23;85.37
11339;BME280;5724;42.684;23.252;2023-03-26T00:32:57;93861.94;;;8.26;85.23
11339;BME280;5724;42.684;23.252;2023-03-26T00:35:23;93848.84;;;8.32;84.78
11339;BME280;5724;42.684;23.252;2023-03-26T00:37:49;93857.44;;;8.34;84.69
11339;BME280;5724;42.684;23.252;2023-03-26T00:40:17;93872.41;;;8.40;84.19
11339;BME280;5724;42.684;23.252;2023-03-26T00:42:43;93858.34;;;8.38;83.66
11339;BME280;5724;42.684;23.252;2023-03-26T00:45:09;93859.22;;;8.42;82.82
11339;BME280;5724;42.684;23.252;2023-03-26T00:47:34;93862.78;;;8.46;82.34
11339;BME280;5724;42.684;23.252;2023-03-26T00:50:00;93865.09;;;8.44;82.40
11339;BME280;5724;42.684;23.252;2023-03-26T00:52:25;93849.03;;;8.39;82.30
11339;BME280;5724;42.684;23.252;2023-03-26T00:54:53;93865.09;;;8.44;82.59
11339;BME280;5724;42.684;23.252;2023-03-26T00:57:20;93865.44;;;8.43;82.64
11339;BME280;5724;42.684;23.252;2023-03-26T00:59:47;93867.81;;;8.44;82.80
11339;BME280;5724;42.684;23.252;2023-03-26T01:02:15;93868.53;;;8.41;82.87
11339;BME280;5724;42.684;23.252;2023-03-26T01:04:45;93862.31;;;8.41;82.73
11339;BME280;5724;42.684;23.252;2023-03-26T01:07:16;93865.81;;;8.41;82.82
11339;BME280;5724;42.684;23.252;2023-03-26T01:09:46;93865.19;;;8.32;83.48
11339;BME280;5724;42.684;23.252;2023-03-26T01:12:18;93876.19;;;8.36;83.29
11339;BME280;5724;42.684;23.252;2023-03-26T01:14:46;93875.44;;;8.39;83.44
11339;BME280;5724;42.684;23.252;2023-03-26T01:17:12;93879.41;;;8.41;83.55
11339;BME280;5724;42.684;23.252;2023-03-26T01:22:13;93876.28;;;8.23;84.21
11339;BME280;5724;42.684;23.252;2023-03-26T01:24:40;93890.66;;;8.24;84.66
11339;BME280;5724;42.684;23.252;2023-03-26T01:27:13;93881.34;;;8.25;84.82
11339;BME280;5724;42.684;23.252;2023-03-26T01:35:19;93886.00;;;8.24;85.48
11339;BME280;5724;42.684;23.252;2023-03-26T01:43:12;93879.31;;;8.02;86.81
11339;BME280;5724;42.684;23.252;2023-03-26T01:45:43;93885.88;;;8.01;87.17
11339;BME280;5724;42.684;23.252;2023-03-26T01:48:11;93882.03;;;8.02;87.20
11339;BME280;5724;42.684;23.252;2023-03-26T01:50:37;93891.94;;;8.11;87.28
11339;BME280;5724;42.684;23.252;2023-03-26T01:53:02;93894.56;;;8.07;87.04
11339;BME280;5724;42.684;23.252;2023-03-26T02:00:54;93890.88;;;7.99;88.25
11339;BME280;5724;42.684;23.252;2023-03-26T02:03:31;93888.63;;;8.01;88.18
11339;BME280;5724;42.684;23.252;2023-03-26T02:06:18;93900.91;;;7.95;87.93
11339;BME280;5724;42.684;23.252;2023-03-26T02:08:56;93895.34;;;8.08;87.03
11339;BME280;5724;42.684;23.252;2023-03-26T02:11:23;93896.31;;;7.99;87.56
11339;BME280;5724;42.684;23.252;2023-03-26T02:13:49;93900.78;;;8.08;87.55
11339;BME280;5724;42.684;23.252;2023-03-26T02:16:16;93893.50;;;8.12;86.89
11339;BME280;5724;42.684;23.252;2023-03-26T02:18:44;93896.47;;;8.22;86.30
11339;BME280;5724;42.684;23.252;2023-03-26T02:21:15;93889.34;;;8.18;86.19
11339;BME280;5724;42.684;23.252;2023-03-26T02:23:47;93890.38;;;8.29;85.45
11339;BME280;5724;42.684;23.252;2023-03-26T02:26:17;93890.75;;;8.43;84.79
11339;BME280;5724;42.684;23.252;2023-03-26T02:28:42;93881.28;;;8.21;84.49
11339;BME280;5724;42.684;23.252;2023-03-26T02:31:08;93898.63;;;8.32;83.67
11339;BME280;5724;42.684;23.252;2023-03-26T02:33:38;93905.41;;;8.23;84.56
11339;BME280;5724;42.684;23.252;2023-03-26T02:36:04;93910.88;;;8.07;86.07
11339;BME280;5724;42.684;23.252;2023-03-26T02:38:33;93910.91;;;7.91;87.05
11339;BME280;5724;42.684;23.252;2023-03-26T02:41:02;93909.41;;;7.94;87.65
11339;BME280;5724;42.684;23.252;2023-03-26T02:43:28;93924.50;;;7.75;88.27
11339;BME280;5724;42.684;23.252;2023-03-26T02:45:53;93914.41;;;7.76;88.44
11339;BME280;5724;42.684;23.252;2023-03-26T02:48:19;93921.88;;;7.79;88.34
11339;BME280;5724;42.684;23.252;2023-03-26T02:50:45;93923.97;;;7.86;88.47
11339;BME280;5724;42.684;23.252;2023-03-26T02:53:14;93919.16;;;7.95;88.71
11339;BME280;5724;42.684;23.252;2023-03-26T02:55:40;93935.03;;;7.93;87.93
11339;BME280;5724;42.684;23.252;2023-03-26T02:58:05;93939.41;;;7.97;87.28
11339;BME280;5724;42.684;23.252;2023-03-26T03:00:31;93935.91;;;7.81;87.05
11339;BME280;5724;42.684;23.252;2023-03-26T03:02:58;93942.66;;;7.87;86.82
11339;BME280;5724;42.684;23.252;2023-03-26T03:05:23;93944.50;;;7.83;87.29
11339;BME280;5724;42.684;23.252;2023-03-26T03:07:52;93944.75;;;7.78;87.86
11339;BME280;5724;42.684;23.252;2023-03-26T03:10:23;93946.97;;;7.72;87.33
11339;BME280;5724;42.684;23.252;2023-03-26T03:12:49;93947.28;;;7.71;87.60
11339;BME280;5724;42.684;23.252;2023-03-26T03:15:14;93943.78;;;7.70;87.52
11339;BME280;5724;42.684;23.252;2023-03-26T03:17:40;93949.94;;;7.67;87.92
11339;BME280;5724;42.684;23.252;2023-03-26T03:20:06;93953.53;;;7.56;88.25
11339;BME280;5724;42.684;23.252;2023-03-26T03:22:34;93962.13;;;7.58;88.60
11339;BME280;5724;42.684;23.252;2023-03-26T03:25:00;93959.75;;;7.56;88.33
11339;BME280;5724;42.684;23.252;2023-03-26T03:27:26;93967.06;;;7.40;88.74
11339;BME280;5724;42.684;23.252;2023-03-26T03:29:52;93964.63;;;7.35;89.68
11339;BME280;5724;42.684;23.252;2023-03-26T03:32:20;93971.72;;;7.39;89.78
11339;BME280;5724;42.684;23.252;2023-03-26T03:34:47;93971.50;;;7.44;89.49
11339;BME280;5724;42.684;23.252;2023-03-26T03:37:15;93966.91;;;7.49;89.47
11339;BME280;5724;42.684;23.252;2023-03-26T03:39:40;93957.00;;;7.40;89.62
11339;BME280;5724;42.684;23.252;2023-03-26T03:42:06;93948.63;;;7.33;89.50
11339;BME280;5724;42.684;23.252;2023-03-26T03:44:31;93945.41;;;7.28;89.96
11339;BME280;5724;42.684;23.252;2023-03-26T03:46:56;93950.13;;;7.31;89.82
11339;BME280;5724;42.684;23.252;2023-03-26T03:49:22;93944.63;;;7.27;89.89
11339;BME280;5724;42.684;23.252;2023-03-26T03:51:47;93955.50;;;7.27;90.01
11339;BME280;5724;42.684;23.252;2023-03-26T03:54:13;93942.28;;;7.13;90.54
11339;BME280;5724;42.684;23.252;2023-03-26T03:56:38;93961.00;;;7.31;90.35
11339;BME280;5724;42.684;23.252;2023-03-26T03:59:04;93958.41;;;7.34;90.22
11339;BME280;5724;42.684;23.252;2023-03-26T04:01:30;93948.03;;;7.24;90.23
11339;BME280;5724;42.684;23.252;2023-03-26T04:03:56;93948.81;;;7.25;90.17
11339;BME280;5724;42.684;23.252;2023-03-26T04:06:23;93938.63;;;7.22;90.73
11339;BME280;5724;42.684;23.252;2023-03-26T04:08:50;93938.91;;;7.16;90.63
11339;BME280;5724;42.684;23.252;2023-03-26T04:11:16;93958.09;;;7.24;90.70
11339;BME280;5724;42.684;23.252;2023-03-26T04:13:42;93966.59;;;7.22;90.89
11339;BME280;5724;42.684;23.252;2023-03-26T04:16:08;93973.16;;;7.21;90.89
11339;BME280;5724;42.684;23.252;2023-03-26T04:18:33;93981.22;;;7.17;91.09
11339;BME280;5724;42.684;23.252;2023-03-26T04:21:00;93982.88;;;7.22;90.81
11339;BME280;5724;42.684;23.252;2023-03-26T04:23:27;93982.50;;;7.08;91.34
11339;BME280;5724;42.684;23.252;2023-03-26T04:25:54;94008.84;;;7.20;91.16
11339;BME280;5724;42.684;23.252;2023-03-26T04:28:39;93995.84;;;7.13;91.50
11339;BME280;5724;42.684;23.252;2023-03-26T04:31:09;94026.41;;;7.10;91.34
11339;BME280;5724;42.684;23.252;2023-03-26T04:33:38;93994.16;;;7.08;90.96
11339;BME280;5724;42.684;23.252;2023-03-26T04:36:04;94010.41;;;7.21;91.07
11339;BME280;5724;42.684;23.252;2023-03-26T04:38:40;94009.28;;;7.22;91.05
11339;BME280;5724;42.684;23.252;2023-03-26T04:41:06;94024.56;;;7.26;90.47
11339;BME280;5724;42.684;23.252;2023-03-26T04:43:32;94024.56;;;7.26;90.00
11339;BME280;5724;42.684;23.252;2023-03-26T04:46:00;94013.25;;;7.24;89.46
11339;BME280;5724;42.684;23.252;2023-03-26T04:48:27;94035.53;;;7.30;88.84
11339;BME280;5724;42.684;23.252;2023-03-26T04:50:54;94030.44;;;7.28;88.67
11339;BME280;5724;42.684;23.252;2023-03-26T04:53:20;94042.44;;;7.27;88.32
11339;BME280;5724;42.684;23.252;2023-03-26T04:58:37;94035.88;;;7.28;87.19
11339;BME280;5724;42.684;23.252;2023-03-26T05:01:04;94019.63;;;7.16;86.71
11339;BME280;5724;42.684;23.252;2023-03-26T05:03:29;94028.84;;;7.27;85.91
11339;BME280;5724;42.684;23.252;2023-03-26T05:05:59;94021.63;;;7.19;85.65
11339;BME280;5724;42.684;23.252;2023-03-26T05:08:25;94048.53;;;7.36;84.84
11339;BME280;5724;42.684;23.252;2023-03-26T05:10:53;94056.53;;;7.45;84.66
11339;BME280;5724;42.684;23.252;2023-03-26T05:13:19;94060.47;;;7.47;84.19
11339;BME280;5724;42.684;23.252;2023-03-26T05:15:44;94069.50;;;7.52;85.22
11339;BME280;5724;42.684;23.252;2023-03-26T05:18:10;94063.63;;;7.50;85.50
11339;BME280;5724;42.684;23.252;2023-03-26T05:20:35;94057.97;;;7.55;85.87
11339;BME280;5724;42.684;23.252;2023-03-26T05:23:01;94063.28;;;7.51;85.81
11339;BME280;5724;42.684;23.252;2023-03-26T05:25:27;94044.88;;;7.44;86.47
11339;BME280;5724;42.684;23.252;2023-03-26T05:27:52;94072.88;;;7.61;86.01
11339;BME280;5724;42.684;23.252;2023-03-26T05:30:19;94075.81;;;7.68;85.35
11339;BME280;5724;42.684;23.252;2023-03-26T05:32:46;94061.78;;;7.66;85.77
11339;BME280;5724;42.684;23.252;2023-03-26T05:35:16;94063.44;;;7.70;85.26
11339;BME280;5724;42.684;23.252;2023-03-26T05:37:43;94076.22;;;7.82;84.48
11339;BME280;5724;42.684;23.252;2023-03-26T05:40:10;94069.19;;;7.97;84.04
11339;BME280;5724;42.684;23.252;2023-03-26T05:42:38;94078.25;;;8.01;83.63
11339;BME280;5724;42.684;23.252;2023-03-26T05:45:09;94072.81;;;8.01;82.91
11339;BME280;5724;42.684;23.252;2023-03-26T05:47:34;94078.97;;;8.14;82.24
11339;BME280;5724;42.684;23.252;2023-03-26T05:50:00;94075.72;;;8.08;81.97
11339;BME280;5724;42.684;23.252;2023-03-26T05:52:25;94085.44;;;8.09;81.87
11339;BME280;5724;42.684;23.252;2023-03-26T05:54:51;94086.88;;;8.19;81.36
11339;BME280;5724;42.684;23.252;2023-03-26T05:57:16;94077.91;;;8.18;82.18
11339;BME280;5724;42.684;23.252;2023-03-26T05:59:43;94082.50;;;8.30;81.65
11339;BME280;5724;42.684;23.252;2023-03-26T06:02:09;94069.44;;;8.51;80.20
11339;BME280;5724;42.684;23.252;2023-03-26T06:04:34;94081.56;;;8.70;79.31
11339;BME280;5724;42.684;23.252;2023-03-26T06:07:07;94084.97;;;8.67;78.17
11339;BME280;5724;42.684;23.252;2023-03-26T06:09:37;94081.09;;;8.68;77.98
11339;BME280;5724;42.684;23.252;2023-03-26T06:12:08;94078.84;;;8.70;77.20
11339;BME280;5724;42.684;23.252;2023-03-26T06:14:34;94071.28;;;8.63;77.21
11339;BME280;5724;42.684;23.252;2023-03-26T06:16:59;94081.81;;;8.49;77.98
11339;BME280;5724;42.684;23.252;2023-03-26T06:19:25;94070.91;;;8.49;77.66
11339;BME280;5724;42.684;23.252;2023-03-26T06:21:51;94076.13;;;8.54;77.76
11339;BME280;5724;42.684;23.252;2023-03-26T06:24:16;94080.00;;;8.69;77.51
11339;BME280;5724;42.684;23.252;2023-03-26T06:26:44;94076.72;;;8.79;77.15
11339;BME280;5724;42.684;23.252;2023-03-26T06:29:11;94081.72;;;8.77;75.95
11339;BME280;5724;42.684;23.252;2023-03-26T06:31:37;94047.44;;;8.76;74.85
11339;BME280;5724;42.684;23.252;2023-03-26T06:34:02;94062.88;;;9.03;74.74
11339;BME280;5724;42.684;23.252;2023-03-26T06:36:27;94067.16;;;9.04;73.92
11339;BME280;5724;42.684;23.252;2023-03-26T06:38:53;94061.94;;;9.15;73.07
11339;BME280;5724;42.684;23.252;2023-03-26T06:41:18;94063.03;;;9.10;72.77
11339;BME280;5724;42.684;23.252;2023-03-26T06:43:44;94031.09;;;8.76;72.38
11339;BME280;5724;42.684;23.252;2023-03-26T06:46:10;94072.25;;;9.06;71.70
11339;BME280;5724;42.684;23.252;2023-03-26T06:48:35;94079.22;;;9.03;71.57
11339;BME280;5724;42.684;23.252;2023-03-26T06:51:01;94062.44;;;8.85;71.91
11339;BME280;5724;42.684;23.252;2023-03-26T06:53:26;94096.66;;;8.83;72.24
11339;BME280;5724;42.684;23.252;2023-03-26T06:55:52;94092.66;;;8.96;71.09
11339;BME280;5724;42.684;23.252;2023-03-26T06:58:19;94103.97;;;8.79;71.04
11339;BME280;5724;42.684;23.252;2023-03-26T07:00:44;94097.19;;;8.73;72.62
11339;BME280;5724;42.684;23.252;2023-03-26T07:03:10;94106.38;;;9.00;70.96
11339;BME280;5724;42.684;23.252;2023-03-26T07:05:36;94092.03;;;9.18;70.50
11339;BME280;5724;42.684;23.252;2023-03-26T07:08:01;94098.56;;;9.33;69.80
11339;BME280;5724;42.684;23.252;2023-03-26T07:10:27;94065.06;;;9.33;70.12
11339;BME280;5724;42.684;23.252;2023-03-26T07:12:53;94077.84;;;9.48;69.65
11339;BME280;5724;42.684;23.252;2023-03-26T07:15:18;94083.00;;;9.53;69.00
11339;BME280;5724;42.684;23.252;2023-03-26T07:17:43;94086.03;;;9.67;67.95
11339;BME280;5724;42.684;23.252;2023-03-26T07:20:10;94085.31;;;9.51;68.70
11339;BME280;5724;42.684;23.252;2023-03-26T07:22:35;94087.16;;;9.28;70.37
11339;BME280;5724;42.684;23.252;2023-03-26T07:25:01;94085.41;;;9.20;71.10
11339;BME280;5724;42.684;23.252;2023-03-26T07:28:19;94070.88;;;9.51;71.35
11339;BME280;5724;42.684;23.252;2023-03-26T07:41:16;94066.81;;;9.60;65.28
11339;BME280;5724;42.684;23.252;2023-03-26T07:44:06;94064.34;;;9.74;64.94
11339;BME280;5724;42.684;23.252;2023-03-26T07:46:36;94066.34;;;9.97;65.67
11339;BME280;5724;42.684;23.252;2023-03-26T07:49:03;94063.81;;;10.08;64.92
11339;BME280;5724;42.684;23.252;2023-03-26T07:51:31;94067.38;;;10.31;65.48
11339;BME280;5724;42.684;23.252;2023-03-26T07:53:56;94057.59;;;10.30;59.27
11339;BME280;5724;42.684;23.252;2023-03-26T07:56:45;94051.44;;;10.33;60.68
11339;BME280;5724;42.684;23.252;2023-03-26T07:59:18;94058.69;;;10.48;60.29
11339;BME280;5724;42.684;23.252;2023-03-26T08:01:54;94054.41;;;10.47;59.38
11339;BME280;5724;42.684;23.252;2023-03-26T08:12:47;94051.50;;;10.37;57.35
11339;BME280;5724;42.684;23.252;2023-03-26T08:21:18;94067.19;;;10.66;56.44
11339;BME280;5724;42.684;23.252;2023-03-26T08:24:01;94068.56;;;10.53;57.75
11339;BME280;5724;42.684;23.252;2023-03-26T08:26:49;94055.69;;;10.53;58.33
11339;BME280;5724;42.684;23.252;2023-03-26T08:31:52;94063.91;;;10.57;57.04
11339;BME280;5724;42.684;23.252;2023-03-26T08:34:18;94061.59;;;10.59;56.50
11339;BME280;5724;42.684;23.252;2023-03-26T08:36:44;94069.31;;;10.76;57.28
11339;BME280;5724;42.684;23.252;2023-03-26T08:39:10;94060.75;;;10.78;55.93
11339;BME280;5724;42.684;23.252;2023-03-26T08:58:41;94089.66;;;11.05;53.21
11339;BME280;5724;42.684;23.252;2023-03-26T09:24:11;94047.31;;;11.49;48.84
11339;BME280;5724;42.684;23.252;2023-03-26T09:43:43;94045.34;;;11.79;49.58
11339;BME280;5724;42.684;23.252;2023-03-26T09:56:53;94027.47;;;11.89;49.20
11339;BME280;5724;42.684;23.252;2023-03-26T10:08:05;94013.66;;;12.15;46.13
11339;BME280;5724;42.684;23.252;2023-03-26T10:13:53;94000.44;;;12.24;45.52
11339;BME280;5724;42.684;23.252;2023-03-26T10:16:31;93992.44;;;12.46;43.46
11339;BME280;5724;42.684;23.252;2023-03-26T10:19:07;93983.75;;;12.40;44.11
11339;BME280;5724;42.684;23.252;2023-03-26T10:26:47;93985.00;;;12.46;43.52
11339;BME280;5724;42.684;23.252;2023-03-26T10:32:21;93968.22;;;12.55;41.57
11339;BME280;5724;42.684;23.252;2023-03-26T10:35:19;93944.38;;;12.63;41.31
11339;BME280;5724;42.684;23.252;2023-03-26T10:53:47;93942.16;;;12.79;37.90
11339;BME280;5724;42.684;23.252;2023-03-26T10:58:51;93951.31;;;13.04;37.18
11339;BME280;5724;42.684;23.252;2023-03-26T11:01:31;93928.16;;;13.02;38.20
11339;BME280;5724;42.684;23.252;2023-03-26T11:06:51;93940.41;;;13.15;35.56
11339;BME280;5724;42.684;23.252;2023-03-26T11:09:39;93960.34;;;13.12;36.98
11339;BME280;5724;42.684;23.252;2023-03-26T11:33:36;93896.72;;;13.72;34.77
11339;BME280;5724;42.684;23.252;2023-03-26T11:36:06;93879.44;;;13.64;34.81
11339;BME280;5724;42.684;23.252;2023-03-26T11:41:23;93900.22;;;13.80;34.12
11339;BME280;5724;42.684;23.252;2023-03-26T11:46:42;93880.63;;;13.78;34.87
11339;BME280;5724;42.684;23.252;2023-03-26T11:49:10;93864.56;;;13.87;35.08
11339;BME280;5724;42.684;23.252;2023-03-26T11:51:38;93864.97;;;14.03;35.94
11339;BME280;5724;42.684;23.252;2023-03-26T11:54:06;93853.59;;;14.12;35.44
11339;BME280;5724;42.684;23.252;2023-03-26T12:01:58;93850.41;;;13.67;34.18
11339;BME280;5724;42.684;23.252;2023-03-26T12:04:43;93855.94;;;14.02;34.67
11339;BME280;5724;42.684;23.252;2023-03-26T12:10:19;93831.59;;;13.80;34.30
11339;BME280;5724;42.684;23.252;2023-03-26T12:12:46;93824.13;;;13.66;34.24
11339;BME280;5724;42.684;23.252;2023-03-26T12:15:17;93784.53;;;13.53;33.85
11339;BME280;5724;42.684;23.252;2023-03-26T12:17:44;93833.19;;;13.91;32.53
11339;BME280;5724;42.684;23.252;2023-03-26T12:20:30;93828.47;;;14.06;33.80
11339;BME280;5724;42.684;23.252;2023-03-26T12:23:03;93805.69;;;13.98;33.13
11339;BME280;5724;42.684;23.252;2023-03-26T12:28:14;93815.50;;;14.21;30.90
11339;BME280;5724;42.684;23.252;2023-03-26T12:31:10;93794.34;;;13.96;32.55
11339;BME280;5724;42.684;23.252;2023-03-26T12:33:42;93795.50;;;14.06;30.63
11339;BME280;5724;42.684;23.252;2023-03-26T12:38:43;93794.34;;;13.82;31.21
11339;BME280;5724;42.684;23.252;2023-03-26T12:41:18;93793.53;;;13.96;28.81
11339;BME280;5724;42.684;23.252;2023-03-26T12:43:49;93767.25;;;14.09;29.72
11339;BME280;5724;42.684;23.252;2023-03-26T12:46:44;93792.31;;;14.36;28.73
11339;BME280;5724;42.684;23.252;2023-03-26T12:49:11;93789.19;;;14.27;29.35
11339;BME280;5724;42.684;23.252;2023-03-26T13:07:27;93780.81;;;14.87;26.92
11339;BME280;5724;42.684;23.252;2023-03-26T13:10:25;93776.50;;;14.86;25.94
11339;BME280;5724;42.684;23.252;2023-03-26T13:13:05;93772.44;;;15.05;26.31
11339;BME280;5724;42.684;23.252;2023-03-26T13:15:43;93783.56;;;14.84;25.50
11339;BME280;5724;42.684;23.252;2023-03-26T13:21:17;93753.78;;;14.65;27.95
11339;BME280;5724;42.684;23.252;2023-03-26T13:32:18;93766.94;;;15.05;26.84
11339;BME280;5724;42.684;23.252;2023-03-26T13:35:41;93769.41;;;14.85;26.33
11339;BME280;5724;42.684;23.252;2023-03-26T13:40:21;93750.16;;;14.89;26.42
11339;BME280;5724;42.684;23.252;2023-03-26T13:45:58;93766.06;;;15.23;25.57
11339;BME280;5724;42.684;23.252;2023-03-26T13:48:46;93749.28;;;15.03;26.85
11339;BME280;5724;42.684;23.252;2023-03-26T13:51:57;93712.91;;;14.70;26.91
11339;BME280;5724;42.684;23.252;2023-03-26T13:54:31;93751.25;;;15.06;26.76
11339;BME280;5724;42.684;23.252;2023-03-26T13:57:13;93723.69;;;15.09;27.17
11339;BME280;5724;42.684;23.252;2023-03-26T13:59:48;93747.16;;;15.28;27.88
11339;BME280;5724;42.684;23.252;2023-03-26T14:02:38;93730.19;;;15.40;28.31
11339;BME280;5724;42.684;23.252;2023-03-26T14:05:28;93738.53;;;15.26;27.70
11339;BME280;5724;42.684;23.252;2023-03-26T14:10:26;93721.63;;;15.24;28.60
11339;BME280;5724;42.684;23.252;2023-03-26T14:12:59;93676.28;;;14.87;28.15
11339;BME280;5724;42.684;23.252;2023-03-26T14:28:25;93712.38;;;15.56;30.20
11339;BME280;5724;42.684;23.252;2023-03-26T14:31:12;93698.22;;;15.54;29.84
11339;BME280;5724;42.684;23.252;2023-03-26T14:52:51;93703.28;;;15.66;30.93
11339;BME280;5724;42.684;23.252;2023-03-26T15:12:26;93693.56;;;15.47;30.42
11339;BME280;5724;42.684;23.252;2023-03-26T15:40:49;93702.16;;;14.97;31.88
11339;BME280;5724;42.684;23.252;2023-03-26T15:43:20;93695.38;;;15.16;32.17
11339;BME280;5724;42.684;23.252;2023-03-26T15:51:33;93698.91;;;15.16;31.99
11339;BME280;5724;42.684;23.252;2023-03-26T15:54:30;93708.97;;;15.34;32.25
11339;BME280;5724;42.684;23.252;2023-03-26T16:00:07;93700.53;;;15.59;32.18
11339;BME280;5724;42.684;23.252;2023-03-26T16:03:09;93695.22;;;15.37;31.99
11339;BME280;5724;42.684;23.252;2023-03-26T16:16:59;93714.50;;;14.64;33.36
11339;BME280;5724;42.684;23.252;2023-03-26T16:22:04;93712.19;;;14.59;33.36
11339;BME280;5724;42.684;23.252;2023-03-26T16:24:34;93710.59;;;14.62;33.47
11339;BME280;5724;42.684;23.252;2023-03-26T16:32:33;93712.28;;;14.23;33.99
11339;BME280;5724;42.684;23.252;2023-03-26T16:35:31;93715.47;;;13.97;34.31
11339;BME280;5724;42.684;23.252;2023-03-26T16:38:09;93720.59;;;13.81;34.79
11339;BME280;5724;42.684;23.252;2023-03-26T16:40:49;93720.22;;;13.57;35.40
11339;BME280;5724;42.684;23.252;2023-03-26T16:43:41;93724.94;;;13.53;35.69
11339;BME280;5724;42.684;23.252;2023-03-26T16:49:29;93717.84;;;13.59;35.89
11339;BME280;5724;42.684;23.252;2023-03-26T16:52:24;93717.09;;;13.55;36.74
11339;BME280;5724;42.684;23.252;2023-03-26T16:55:13;93716.31;;;13.44;37.29
11339;BME280;5724;42.684;23.252;2023-03-26T16:58:15;93720.22;;;13.32;38.10
11339;BME280;5724;42.684;23.252;2023-03-26T17:00:52;93721.41;;;13.24;38.39
11339;BME280;5724;42.684;23.252;2023-03-26T17:06:25;93717.78;;;12.99;39.52
11339;BME280;5724;42.684;23.252;2023-03-26T17:09:31;93722.09;;;12.89;39.98
11339;BME280;5724;42.684;23.252;2023-03-26T17:15:22;93720.78;;;12.54;41.72
11339;BME280;5724;42.684;23.252;2023-03-26T17:23:42;93731.63;;;12.19;42.54
11339;BME280;5724;42.684;23.252;2023-03-26T17:42:33;93722.38;;;11.79;43.49
11339;BME280;5724;42.684;23.252;2023-03-26T17:45:19;93716.03;;;11.68;44.11
11339;BME280;5724;42.684;23.252;2023-03-26T17:47:51;93713.72;;;11.73;44.46
11339;BME280;5724;42.684;23.252;2023-03-26T17:50:34;93715.66;;;11.69;43.41
11339;BME280;5724;42.684;23.252;2023-03-26T17:53:15;93717.59;;;11.69;43.47
11339;BME280;5724;42.684;23.252;2023-03-26T17:55:44;93712.13;;;11.69;43.77
11339;BME280;5724;42.684;23.252;2023-03-26T18:00:49;93707.72;;;11.54;43.13
11339;BME280;5724;42.684;23.252;2023-03-26T18:03:26;93702.09;;;11.32;43.73
11339;BME280;5724;42.684;23.252;2023-03-26T18:05:57;93711.50;;;11.38;43.46
11339;BME280;5724;42.684;23.252;2023-03-26T18:08:48;93710.31;;;11.36;43.35
11339;BME280;5724;42.684;23.252;2023-03-26T18:16:38;93710.00;;;11.44;43.46
11339;BME280;5724;42.684;23.252;2023-03-26T18:19:16;93713.56;;;11.52;43.48
11339;BME280;5724;42.684;23.252;2023-03-26T18:21:58;93712.41;;;11.53;43.89
11339;BME280;5724;42.684;23.252;2023-03-26T18:24:30;93702.97;;;11.43;44.01
11339;BME280;5724;42.684;23.252;2023-03-26T18:27:01;93699.75;;;11.34;44.42
11339;BME280;5724;42.684;23.252;2023-03-26T18:29:32;93699.00;;;11.37;44.09
11339;BME280;5724;42.684;23.252;2023-03-26T18:34:37;93698.22;;;11.37;43.90
11339;BME280;5724;42.684;23.252;2023-03-26T18:39:54;93687.22;;;11.30;44.50
11339;BME280;5724;42.684;23.252;2023-03-26T18:42:21;93689.91;;;11.23;44.50
11339;BME280;5724;42.684;23.252;2023-03-26T18:44:48;93680.06;;;11.14;44.74
11339;BME280;5724;42.684;23.252;2023-03-26T18:47:18;93692.97;;;11.14;44.78
11339;BME280;5724;42.684;23.252;2023-03-26T18:49:46;93669.44;;;11.02;44.90
11339;BME280;5724;42.684;23.252;2023-03-26T18:52:17;93683.88;;;11.03;45.11
11339;BME280;5724;42.684;23.252;2023-03-26T18:54:47;93672.47;;;10.94;45.24
11339;BME280;5724;42.684;23.252;2023-03-26T18:57:23;93678.22;;;10.81;45.04
11339;BME280;5724;42.684;23.252;2023-03-26T18:59:51;93670.38;;;10.76;45.09
11339;BME280;5724;42.684;23.252;2023-03-26T19:02:17;93666.81;;;10.72;45.10
11339;BME280;5724;42.684;23.252;2023-03-26T19:04:44;93660.09;;;10.63;45.23
11339;BME280;5724;42.684;23.252;2023-03-26T19:07:13;93654.25;;;10.64;44.67
11339;BME280;5724;42.684;23.252;2023-03-26T19:09:40;93646.69;;;10.50;45.33
11339;BME280;5724;42.684;23.252;2023-03-26T19:12:19;93648.38;;;10.62;45.99
11339;BME280;5724;42.684;23.252;2023-03-26T19:15:09;93637.56;;;10.73;45.30
11339;BME280;5724;42.684;23.252;2023-03-26T19:17:43;93646.06;;;10.68;44.89
11339;BME280;5724;42.684;23.252;2023-03-26T19:20:15;93644.50;;;10.63;44.84
11339;BME280;5724;42.684;23.252;2023-03-26T19:22:42;93638.66;;;10.68;44.69
11339;BME280;5724;42.684;23.252;2023-03-26T19:25:20;93637.94;;;10.71;44.39
11339;BME280;5724;42.684;23.252;2023-03-26T19:27:47;93610.88;;;10.59;43.91
11339;BME280;5724;42.684;23.252;2023-03-26T19:30:31;93624.22;;;10.68;43.52
11339;BME280;5724;42.684;23.252;2023-03-26T19:33:11;93624.63;;;10.70;43.37
11339;BME280;5724;42.684;23.252;2023-03-26T19:35:38;93622.19;;;10.61;43.39
11339;BME280;5724;42.684;23.252;2023-03-26T19:38:24;93624.59;;;10.66;43.83
11339;BME280;5724;42.684;23.252;2023-03-26T19:40:52;93615.22;;;10.64;43.41
11339;BME280;5724;42.684;23.252;2023-03-26T19:43:19;93600.69;;;10.52;43.51
11339;BME280;5724;42.684;23.252;2023-03-26T19:45:44;93609.72;;;10.60;43.77
11339;BME280;5724;42.684;23.252;2023-03-26T19:48:13;93604.53;;;10.48;43.63